createdAt,value
2019-02-22T00:01:11.815Z,76.93
2019-02-22T00:03:43.441Z,77.04
2019-02-22T00:06:13.917Z,76.97
2019-02-22T00:08:45.715Z,77.03
2019-02-22T00:11:22.704Z,77.17
2019-02-22T00:14:00.415Z,77.07
2019-02-22T00:16:32.441Z,77.29
2019-02-22T00:19:03.954Z,77.22
2019-02-22T00:21:33.964Z,77.45
2019-02-22T00:24:10.242Z,77.21
2019-02-22T00:26:54.182Z,77.37
2019-02-22T00:29:26.680Z,77.10
2019-02-22T00:32:02.771Z,77.20
2019-02-22T00:34:38.405Z,76.98
2019-02-22T00:37:14.921Z,77.03
2019-02-22T00:39:47.420Z,77.24
2019-02-22T00:42:19.448Z,77.22
2019-02-22T00:44:55.532Z,77.10
2019-02-22T00:47:32.065Z,77.42
2019-02-22T00:50:01.898Z,77.21
2019-02-22T00:52:35.416Z,77.11
2019-02-22T00:55:06.761Z,77.15
2019-02-22T00:57:38.118Z,77.04
2019-02-22T01:02:43.041Z,76.86
2019-02-22T01:05:14.863Z,77.24
2019-02-22T01:07:48.943Z,77.13
2019-02-22T01:10:30.449Z,77.36
2019-02-22T01:12:51.926Z,77.26
2019-02-22T01:15:28.938Z,77.07
2019-02-22T01:17:59.563Z,77.09
2019-02-22T01:20:30.820Z,77.08
2019-02-22T01:23:03.586Z,77.08
2019-02-22T01:25:35.478Z,76.92
2019-02-22T01:28:07.881Z,77.01
2019-02-22T01:30:45.389Z,76.73
2019-02-22T01:33:15.545Z,77.11
2019-02-22T01:35:44.988Z,77.02
2019-02-22T01:38:16.425Z,77.01
2019-02-22T01:40:46.994Z,76.92
2019-02-22T01:43:19.235Z,76.85
2019-02-22T01:45:49.162Z,76.69
2019-02-22T01:48:19.171Z,76.67
2019-02-22T01:50:51.470Z,76.88
2019-02-22T01:53:20.724Z,76.82
2019-02-22T01:55:52.097Z,76.85
2019-02-22T01:58:22.512Z,76.66
2019-02-22T02:00:55.550Z,76.61
2019-02-22T02:03:31.285Z,76.51
2019-02-22T02:06:01.485Z,76.47
2019-02-22T02:08:33.272Z,76.61
2019-02-22T02:11:02.621Z,76.79
2019-02-22T02:13:31.729Z,76.64
2019-02-22T02:16:09.392Z,76.86
2019-02-22T02:18:38.884Z,76.72
2019-02-22T02:21:10.678Z,76.47
2019-02-22T02:23:45.214Z,76.61
2019-02-22T02:26:19.919Z,76.50
2019-02-22T02:31:29.121Z,76.20
2019-02-22T02:34:01.391Z,76.09
2019-02-22T02:36:33.775Z,76.18
2019-02-22T02:39:07.994Z,75.82
2019-02-22T02:41:41.728Z,75.97
2019-02-22T02:44:12.984Z,75.69
2019-02-22T02:46:47.072Z,75.74
2019-02-22T02:49:19.342Z,75.75
2019-02-22T02:51:51.035Z,75.55
2019-02-22T02:54:23.058Z,75.73
2019-02-22T02:56:52.820Z,75.36
2019-02-22T02:59:24.504Z,75.38
2019-02-22T03:01:56.189Z,75.33
2019-02-22T03:04:27.431Z,75.08
2019-02-22T03:07:05.513Z,75.04
2019-02-22T03:09:36.071Z,75.01
2019-02-22T03:12:07.724Z,74.59
2019-02-22T03:14:40.935Z,74.57
2019-02-22T03:17:12.363Z,74.59
2019-02-22T03:19:55.933Z,74.45
2019-02-22T03:22:29.520Z,74.43
2019-02-22T03:25:00.329Z,74.36
2019-02-22T03:27:32.020Z,74.32
2019-02-22T03:30:04.281Z,74.20
2019-02-22T03:32:34.775Z,74.38
2019-02-22T03:35:04.969Z,74.16
2019-02-22T03:37:35.309Z,74.23
2019-02-22T03:40:06.613Z,74.06
2019-02-22T03:42:36.834Z,74.12
2019-02-22T03:45:06.952Z,74.13
2019-02-22T03:47:38.402Z,73.96
2019-02-22T03:50:08.843Z,73.89
2019-02-22T03:52:49.620Z,74.11
2019-02-22T03:55:20.260Z,73.73
2019-02-22T03:57:53.793Z,73.89
2019-02-22T04:00:28.987Z,74.14
2019-02-22T04:02:59.391Z,74.00
2019-02-22T04:05:33.029Z,74.05
2019-02-22T04:08:04.048Z,73.93
2019-02-22T04:10:48.475Z,74.09
2019-02-22T04:13:18.707Z,73.93
2019-02-22T04:15:49.160Z,73.86
2019-02-22T04:18:19.003Z,74.02
2019-02-22T04:20:49.783Z,73.96
2019-02-22T04:23:22.817Z,73.92
2019-02-22T04:25:56.308Z,74.00
2019-02-22T04:28:26.613Z,73.74
2019-02-22T04:30:59.702Z,73.88
2019-02-22T04:33:30.157Z,73.87
2019-02-22T04:36:07.406Z,74.06
2019-02-22T04:38:41.607Z,74.15
2019-02-22T04:41:15.443Z,74.23
2019-02-22T04:43:46.859Z,74.19
2019-02-22T04:46:20.067Z,74.30
2019-02-22T04:48:53.473Z,74.40
2019-02-22T04:51:23.444Z,74.33
2019-02-22T04:53:59.693Z,74.67
2019-02-22T04:56:36.509Z,74.88
2019-02-22T04:59:10.190Z,75.03
2019-02-22T05:01:41.005Z,74.93
2019-02-22T05:04:11.266Z,75.08
2019-02-22T05:06:43.484Z,75.35
2019-02-22T05:09:14.698Z,75.54
2019-02-22T05:11:45.914Z,75.41
2019-02-22T05:14:17.450Z,75.93
2019-02-22T05:16:50.890Z,76.18
2019-02-22T05:19:20.914Z,76.39
2019-02-22T05:21:57.162Z,76.33
2019-02-22T05:24:30.053Z,76.50
2019-02-22T05:27:00.446Z,76.62
2019-02-22T05:29:32.956Z,77.00
2019-02-22T05:32:03.490Z,77.20
2019-02-22T05:34:34.362Z,77.35
2019-02-22T05:37:04.671Z,77.70
2019-02-22T05:39:38.552Z,78.26
2019-02-22T05:42:22.267Z,78.31
2019-02-22T05:44:42.685Z,78.58
2019-02-22T05:47:21.207Z,78.43
2019-02-22T05:49:51.539Z,78.73
2019-02-22T05:52:22.455Z,78.99
2019-02-22T05:54:57.291Z,79.29
2019-02-22T05:57:29.461Z,79.25
2019-02-22T05:59:59.759Z,79.76
2019-02-22T06:02:30.350Z,79.97
2019-02-22T06:05:00.017Z,80.02
2019-02-22T06:07:34.051Z,80.12
2019-02-22T06:10:04.061Z,80.37
2019-02-22T06:12:38.210Z,80.59
2019-02-22T06:15:10.121Z,80.69
2019-02-22T06:17:48.735Z,80.94
2019-02-22T06:22:51.735Z,80.87
2019-02-22T06:25:23.874Z,80.98
2019-02-22T06:27:57.691Z,81.12
2019-02-22T06:30:27.785Z,81.14
2019-02-22T06:32:58.132Z,81.16
2019-02-22T06:35:34.354Z,81.32
2019-02-22T06:38:03.999Z,81.46
2019-02-22T06:40:35.576Z,81.43
2019-02-22T06:43:06.260Z,81.54
2019-02-22T06:45:44.469Z,81.52
2019-02-22T06:48:14.321Z,81.56
2019-02-22T06:50:45.775Z,81.74
2019-02-22T06:53:27.187Z,81.43
2019-02-22T06:55:58.200Z,81.56
2019-02-22T06:58:28.173Z,81.53
2019-02-22T07:00:58.724Z,81.55
2019-02-22T07:03:28.861Z,81.91
2019-02-22T07:08:37.533Z,81.55
2019-02-22T07:11:15.248Z,81.45
2019-02-22T07:13:44.547Z,81.30
2019-02-22T07:16:23.575Z,81.36
2019-02-22T07:18:54.906Z,81.33
2019-02-22T07:21:26.457Z,81.07
2019-02-22T07:23:57.253Z,81.18
2019-02-22T07:26:30.442Z,81.06
2019-02-22T07:29:01.737Z,80.95
2019-02-22T07:31:32.115Z,80.89
2019-02-22T07:34:03.058Z,80.93
2019-02-22T07:36:34.776Z,80.79
2019-02-22T07:39:11.873Z,80.95
2019-02-22T07:41:44.780Z,80.78
2019-02-22T07:44:16.915Z,80.93
2019-02-22T07:46:51.079Z,80.69
2019-02-22T07:49:26.541Z,80.67
2019-02-22T07:52:02.773Z,80.71
2019-02-22T07:54:37.282Z,80.48
2019-02-22T07:57:07.716Z,80.45
2019-02-22T07:59:40.389Z,80.34
2019-02-22T08:02:11.034Z,80.22
2019-02-22T08:04:40.974Z,80.28
2019-02-22T08:07:12.329Z,79.99
2019-02-22T08:09:46.074Z,80.20
2019-02-22T08:12:18.118Z,80.18
2019-02-22T08:14:49.287Z,79.96
2019-02-22T08:17:28.520Z,79.71
2019-02-22T08:20:07.050Z,79.73
2019-02-22T08:22:46.492Z,79.73
2019-02-22T08:25:17.708Z,79.42
2019-02-22T08:27:53.856Z,79.58
2019-02-22T08:30:18.391Z,79.36
2019-02-22T08:32:50.074Z,79.51
2019-02-22T08:35:27.095Z,79.33
2019-02-22T08:40:44.655Z,79.11
2019-02-22T08:43:18.825Z,79.12
2019-02-22T08:45:52.473Z,78.90
2019-02-22T08:48:38.393Z,78.85
2019-02-22T08:51:11.486Z,78.43
2019-02-22T08:53:53.768Z,78.81
2019-02-22T08:57:06.572Z,78.53
2019-02-22T09:03:00.547Z,78.36
2019-02-22T09:08:33.291Z,78.04
2019-02-22T09:11:12.091Z,77.88
2019-02-22T09:18:27.930Z,77.29
2019-02-22T09:21:01.138Z,77.13
2019-02-22T09:23:34.723Z,76.95
2019-02-22T09:26:13.212Z,76.65
2019-02-22T09:28:59.110Z,76.77
2019-02-22T09:31:42.948Z,76.44
2019-02-22T09:34:20.621Z,76.47
2019-02-22T09:36:58.209Z,76.47
2019-02-22T09:39:37.738Z,76.35
2019-02-22T09:45:03.057Z,76.43
2019-02-22T09:47:37.432Z,76.64
2019-02-22T09:52:58.290Z,76.46
2019-02-22T09:55:42.353Z,76.32
2019-02-22T09:58:20.094Z,76.17
2019-02-22T10:00:49.815Z,76.10
2019-02-22T10:03:19.393Z,76.19
2019-02-22T10:05:53.838Z,76.01
2019-02-22T10:08:27.718Z,75.73
2019-02-22T10:11:00.807Z,75.63
2019-02-22T10:13:44.959Z,75.62
2019-02-22T10:16:17.292Z,75.41
2019-02-22T10:18:48.046Z,75.37
2019-02-22T10:21:19.206Z,75.50
2019-02-22T10:26:32.105Z,75.04
2019-02-22T10:29:11.881Z,74.86
2019-02-22T10:31:47.062Z,74.91
2019-02-22T10:34:18.420Z,74.69
2019-02-22T10:36:49.918Z,74.58
2019-02-22T10:39:28.588Z,74.40
2019-02-22T10:42:15.758Z,74.59
2019-02-22T10:44:46.896Z,74.49
2019-02-22T10:47:28.849Z,74.21
2019-02-22T10:50:04.486Z,73.89
2019-02-22T10:52:42.649Z,73.72
2019-02-22T10:55:16.584Z,73.69
2019-02-22T10:57:57.917Z,73.58
2019-02-22T11:00:29.349Z,73.17
2019-02-22T11:03:00.881Z,73.32
2019-02-22T11:05:34.830Z,73.27
2019-02-22T11:08:15.862Z,73.34
2019-02-22T11:10:48.307Z,73.15
2019-02-22T11:13:21.409Z,73.13
2019-02-22T11:18:53.712Z,72.83
2019-02-22T11:21:24.348Z,72.39
2019-02-22T11:23:58.042Z,72.13
2019-02-22T11:26:32.480Z,71.96
2019-02-22T11:29:09.654Z,71.87
2019-02-22T11:31:40.844Z,71.66
2019-02-22T11:34:22.968Z,71.67
2019-02-22T11:37:08.253Z,71.65
2019-02-22T11:39:39.981Z,71.42
2019-02-22T11:42:09.190Z,71.50
2019-02-22T11:44:47.326Z,71.22
2019-02-22T11:47:22.505Z,71.14
2019-02-22T11:49:56.652Z,71.06
2019-02-22T11:52:29.435Z,70.87
2019-02-22T11:55:00.773Z,70.70
2019-02-22T11:57:32.352Z,70.53
2019-02-22T12:00:07.470Z,70.56
2019-02-22T12:02:41.473Z,70.35
2019-02-22T12:05:14.584Z,70.03
2019-02-22T12:07:52.030Z,69.97
2019-02-22T12:10:29.383Z,70.17
2019-02-22T12:13:00.831Z,69.78
2019-02-22T12:15:31.588Z,69.80
2019-02-22T12:18:07.459Z,69.77
2019-02-22T12:20:43.408Z,69.90
2019-02-22T12:23:17.872Z,69.74
2019-02-22T12:25:49.517Z,69.67
2019-02-22T12:31:31.851Z,69.61
2019-02-22T12:34:02.788Z,69.64
2019-02-22T12:36:32.536Z,69.45
2019-02-22T12:39:05.625Z,69.47
2019-02-22T12:41:42.114Z,69.62
2019-02-22T12:44:14.090Z,69.25
2019-02-22T12:46:47.036Z,69.09
2019-02-22T12:49:16.554Z,69.22
2019-02-22T12:51:48.623Z,69.10
2019-02-22T12:54:21.864Z,69.03
2019-02-22T12:57:00.211Z,68.53
2019-02-22T12:59:32.621Z,68.31
2019-02-22T13:02:12.653Z,68.21
2019-02-22T13:04:48.054Z,68.17
2019-02-22T13:12:46.125Z,67.89
2019-02-22T13:15:16.406Z,67.79
2019-02-22T13:20:42.430Z,67.54
2019-02-22T13:23:12.354Z,67.53
2019-02-22T13:25:43.687Z,67.29
2019-02-22T13:28:17.610Z,66.89
2019-02-22T13:30:50.603Z,66.94
2019-02-22T13:33:22.751Z,66.99
2019-02-22T13:35:56.022Z,66.97
2019-02-22T13:38:31.225Z,66.92
2019-02-22T13:41:06.878Z,67.15
2019-02-22T13:43:41.944Z,67.14
2019-02-22T13:46:12.328Z,66.89
2019-02-22T13:48:43.262Z,67.37
2019-02-22T13:51:16.863Z,66.89
2019-02-22T13:53:49.788Z,67.38
2019-02-22T13:56:29.280Z,67.12
2019-02-22T13:58:53.343Z,67.26
2019-02-22T14:01:30.810Z,67.02
2019-02-22T14:04:05.463Z,67.02
2019-02-22T14:06:36.834Z,67.01
2019-02-22T14:09:08.794Z,66.80
2019-02-22T14:11:42.263Z,66.99
2019-02-22T14:14:18.492Z,67.34
2019-02-22T14:16:54.323Z,67.12
2019-02-22T14:19:29.609Z,67.29
2019-02-22T14:22:00.261Z,67.48
2019-02-22T14:27:20.128Z,67.06
2019-02-22T14:29:55.767Z,66.62
2019-02-22T14:32:26.204Z,66.72
2019-02-22T14:35:01.246Z,66.73
2019-02-22T14:37:37.423Z,66.78
2019-02-22T14:40:16.991Z,67.10
2019-02-22T14:42:48.299Z,66.97
2019-02-22T14:45:19.434Z,67.01
2019-02-22T14:47:52.479Z,66.88
2019-02-22T14:50:23.386Z,66.87
2019-02-22T14:53:16.635Z,67.03
2019-02-22T14:55:38.941Z,66.99
2019-02-22T14:58:13.931Z,67.17
2019-02-22T15:00:44.464Z,67.09
2019-02-22T15:03:17.687Z,67.29
2019-02-22T15:05:48.103Z,67.22
2019-02-22T15:08:17.231Z,67.37
2019-02-22T15:10:50.900Z,67.37
2019-02-22T15:13:19.950Z,67.59
2019-02-22T15:16:03.802Z,67.43
2019-02-22T15:18:42.275Z,67.33
2019-02-22T15:21:11.990Z,67.37
2019-02-22T15:23:41.474Z,67.35
2019-02-22T15:26:13.601Z,67.34
2019-02-22T15:28:43.223Z,67.62
2019-02-22T15:31:14.504Z,67.71
2019-02-22T15:33:47.376Z,67.72
2019-02-22T15:36:19.450Z,67.87
2019-02-22T15:38:50.461Z,67.80
2019-02-22T15:41:21.729Z,67.92
2019-02-22T15:43:59.267Z,67.83
2019-02-22T15:46:37.080Z,68.06
2019-02-22T15:49:10.934Z,68.20
2019-02-22T15:51:44.115Z,68.06
2019-02-22T15:54:18.926Z,68.32
2019-02-22T15:56:54.389Z,68.57
2019-02-22T15:59:27.323Z,68.45
2019-02-22T16:02:05.581Z,68.47
2019-02-22T16:04:59.818Z,68.63
2019-02-22T16:07:44.322Z,68.79
2019-02-22T16:10:05.309Z,68.70
2019-02-22T16:12:40.593Z,68.88
2019-02-22T16:15:23.060Z,68.93
2019-02-22T16:17:53.892Z,69.14
2019-02-22T16:20:24.449Z,69.30
2019-02-22T16:22:55.518Z,69.37
2019-02-22T16:25:24.639Z,69.37
2019-02-22T16:27:56.552Z,69.29
2019-02-22T16:30:28.920Z,69.49
2019-02-22T16:32:58.778Z,69.57
2019-02-22T16:38:09.208Z,69.89
2019-02-22T16:40:39.065Z,70.15
2019-02-22T16:45:52.494Z,70.58
2019-02-22T16:48:24.827Z,70.66
2019-02-22T16:51:02.402Z,70.92
2019-02-22T16:53:31.898Z,70.93
2019-02-22T16:56:07.938Z,71.22
2019-02-22T16:58:40.060Z,71.40
2019-02-22T17:03:49.226Z,71.63
2019-02-22T17:06:23.491Z,71.55
2019-02-22T17:08:54.058Z,71.85
2019-02-22T17:11:25.933Z,71.94
2019-02-22T17:13:56.242Z,72.11
2019-02-22T17:16:25.602Z,72.10
2019-02-22T17:18:56.920Z,72.28
2019-02-22T17:21:26.151Z,72.43
2019-02-22T17:23:57.050Z,72.88
2019-02-22T17:26:28.661Z,72.98
2019-02-22T17:29:00.633Z,73.19
2019-02-22T17:31:35.854Z,73.42
2019-02-22T17:34:07.305Z,73.73
2019-02-22T17:36:42.062Z,73.91
2019-02-22T17:39:12.312Z,74.05
2019-02-22T17:41:42.968Z,74.26
2019-02-22T17:44:12.455Z,74.41
2019-02-22T17:46:44.710Z,74.39
2019-02-22T17:49:17.066Z,74.66
2019-02-22T17:51:47.346Z,74.68
2019-02-22T17:54:19.436Z,74.78
2019-02-22T17:56:51.339Z,75.04
2019-02-22T17:59:23.766Z,75.29
2019-02-22T18:01:54.744Z,75.46
2019-02-22T18:04:26.357Z,75.48
2019-02-22T18:06:58.146Z,75.63
2019-02-22T18:09:29.037Z,75.63
2019-02-22T18:11:59.905Z,75.74
2019-02-22T18:14:30.622Z,75.95
2019-02-22T18:17:07.951Z,76.06
2019-02-22T18:19:42.370Z,76.11
2019-02-22T18:22:25.225Z,76.38
2019-02-22T18:24:49.592Z,76.51
2019-02-22T18:29:58.433Z,76.65
2019-02-22T18:32:29.399Z,76.72
2019-02-22T18:35:07.027Z,76.92
2019-02-22T18:37:40.603Z,77.00
2019-02-22T18:40:15.602Z,77.05
2019-02-22T18:42:48.099Z,77.07
2019-02-22T18:45:18.232Z,77.12
2019-02-22T18:48:03.597Z,77.28
2019-02-22T18:50:34.038Z,77.53
2019-02-22T18:53:05.087Z,77.56
2019-02-22T18:55:49.556Z,77.48
2019-02-22T18:58:18.234Z,77.85
2019-02-22T19:00:49.883Z,77.59
2019-02-22T19:03:20.973Z,77.86
2019-02-22T19:05:53.443Z,77.99
2019-02-22T19:08:32.447Z,77.98
2019-02-22T19:11:01.858Z,78.02
2019-02-22T19:13:33.251Z,78.06
2019-02-22T19:16:04.520Z,77.95
2019-02-22T19:18:41.719Z,78.21
2019-02-22T19:21:18.513Z,78.31
2019-02-22T19:23:52.209Z,78.33
2019-02-22T19:26:29.707Z,78.18
2019-02-22T19:29:00.901Z,78.37
2019-02-22T19:31:32.615Z,78.38
2019-02-22T19:34:01.944Z,78.31
2019-02-22T19:39:14.226Z,78.60
2019-02-22T19:41:46.053Z,78.60
2019-02-22T19:44:20.465Z,78.64
2019-02-22T19:49:31.049Z,78.65
2019-02-22T19:52:09.917Z,78.96
2019-02-22T19:54:40.099Z,78.78
2019-02-22T19:57:11.453Z,78.96
2019-02-22T19:59:44.709Z,78.85
2019-02-22T20:02:20.461Z,79.02
2019-02-22T20:04:59.722Z,79.12
2019-02-22T20:07:30.161Z,79.02
2019-02-22T20:10:01.304Z,79.14
2019-02-22T20:12:34.781Z,79.24
2019-02-22T20:15:05.669Z,79.18
2019-02-22T20:17:40.286Z,79.20
2019-02-22T20:20:12.334Z,79.10
2019-02-22T20:22:46.230Z,79.13
2019-02-22T20:25:17.832Z,79.20
2019-02-22T20:27:55.825Z,79.32
2019-02-22T20:30:26.967Z,79.21
2019-02-22T20:33:01.013Z,79.30
2019-02-22T20:35:37.085Z,79.31
2019-02-22T20:38:09.879Z,79.19
2019-02-22T20:40:43.783Z,79.11
2019-02-22T20:43:14.105Z,79.29
2019-02-22T20:45:50.116Z,79.19
2019-02-22T20:48:25.909Z,79.23
2019-02-22T20:50:55.050Z,79.21
2019-02-22T20:53:26.666Z,79.21
2019-02-22T20:55:59.332Z,79.36
2019-02-22T20:58:29.554Z,79.25
2019-02-22T21:01:00.678Z,79.44
2019-02-22T21:03:32.044Z,79.55
2019-02-22T21:06:04.973Z,79.54
2019-02-22T21:08:35.025Z,79.65
2019-02-22T21:11:11.904Z,79.77
2019-02-22T21:13:42.415Z,79.88
2019-02-22T21:16:14.931Z,79.78
2019-02-22T21:18:47.834Z,79.88
2019-02-22T21:21:18.147Z,79.85
2019-02-22T21:23:52.658Z,79.85
2019-02-22T21:26:24.426Z,79.82
2019-02-22T21:28:55.532Z,79.87
2019-02-22T21:31:28.367Z,79.52
2019-02-22T21:33:59.954Z,79.64
2019-02-22T21:36:31.137Z,79.19
2019-02-22T21:39:03.007Z,79.36
2019-02-22T21:41:33.458Z,79.44
2019-02-22T21:44:04.140Z,79.54
2019-02-22T21:46:34.790Z,79.42
2019-02-22T21:49:07.552Z,79.48
2019-02-22T21:54:26.083Z,79.57
2019-02-22T21:56:57.011Z,79.67
2019-02-22T21:59:32.862Z,79.78
2019-02-22T22:02:10.174Z,79.85
2019-02-22T22:04:46.208Z,79.73
2019-02-22T22:07:19.242Z,79.93
2019-02-22T22:09:52.018Z,79.92
2019-02-22T22:12:21.547Z,80.01
2019-02-22T22:14:52.908Z,79.83
2019-02-22T22:17:23.154Z,79.61
2019-02-22T22:19:53.011Z,79.69
2019-02-22T22:22:27.840Z,79.59
2019-02-22T22:24:58.059Z,79.56
2019-02-22T22:27:29.791Z,79.82
2019-02-22T22:30:07.836Z,79.58
2019-02-22T22:32:37.400Z,79.88
2019-02-22T22:35:08.793Z,79.46
2019-02-22T22:37:39.385Z,79.73
2019-02-22T22:40:10.345Z,79.80
2019-02-22T22:42:40.459Z,79.79
2019-02-22T22:45:10.785Z,79.90
2019-02-22T22:47:42.366Z,80.08
2019-02-22T22:50:13.358Z,80.15
2019-02-22T22:52:44.844Z,80.22
2019-02-22T22:55:15.219Z,80.13
2019-02-22T22:57:48.438Z,80.27
2019-02-22T23:00:35.619Z,80.29
2019-02-22T23:03:04.825Z,80.44
2019-02-22T23:05:38.356Z,80.59
2019-02-22T23:08:10.146Z,80.49
2019-02-22T23:10:45.539Z,80.55
2019-02-22T23:13:15.549Z,80.65
2019-02-22T23:15:44.668Z,80.75
2019-02-22T23:18:15.731Z,80.73
2019-02-22T23:20:46.955Z,80.61
2019-02-22T23:23:17.810Z,80.76
2019-02-22T23:25:48.428Z,80.67
2019-02-22T23:28:21.738Z,80.61
2019-02-22T23:30:50.741Z,80.86
2019-02-22T23:33:21.666Z,81.13
2019-02-22T23:35:54.217Z,81.03
2019-02-22T23:38:30.654Z,80.89
2019-02-22T23:41:03.742Z,80.83
2019-02-22T23:43:36.033Z,80.99
2019-02-22T23:46:05.789Z,81.15
2019-02-22T23:48:35.977Z,81.04
2019-02-22T23:51:05.313Z,81.31
2019-02-22T23:53:35.833Z,80.87
2019-02-22T23:56:06.370Z,80.81
2019-02-22T23:58:36.642Z,81.03
